Saint Louis, Missouri
Current Conditions -  °F | °C
As of 4:53 AM on Friday 24 Oct 2014 (Local Time) from KCPS Reporting Station
Overcast Overcast  
Wind Chill: 52°   Ceiling: 3700
Heat Index: 52°   Visibility: 10mi
Dew Point: 49°   Wind: 0mph
Humidity: 89%   Direction: NA
Pressure: 30.1"   Gusts: NA
Location:  38.63°N, 90.24°W
Report Text: KCPS 240953Z AUTO 00000KT 10SM SCT026 BKN037 OVC050 11/09 A3010 RMK AO2 SLP191 T01110094
Loading
Personal Weather Stations






























Interactive Weather Map New forecast layout! Learn more

10-Day Weather Forecast

Advertisements
Track Severe Weather on mobile